Aeroboteco Virtual Airline

Aeroboteco Virtual Airlines! Uma nuvem a frente.



 INFORMAÇÕES METEOROLÓGICAS
METAR FOR LPFR
ADDS - METARS form results

(1538 UTC 20 January 2019)
Data provider http://aviationweather.gov/metar/data/
 
METAR text: LPFR 201530Z 34018KT 300V010 9999 FEW045 17/04 Q1018
Conditions at: LPFR (FARO , PT) observed 1530 UTC 20 January 2019
Temperature: 17.0°C (63°F)
Dewpoint: 4.0°C (39°F) [RH = 42%]
Pressure (altimeter): 30.06 inches Hg (1018.0 mb)
Winds: from the NNW (340 degrees) at 21 MPH (18 knots; 9.3 m/s)
Visibility: 6 or more miles (10+ km)
Ceiling: at least 12,000 feet AGL
Clouds: few clouds at 4500 feet AGL
Weather: no significant weather observed at this time

METAR text: LPFR 201500Z 34016KT 310V010 9999 FEW045 17/04 Q1018
Conditions at: LPFR (FARO , PT) observed 1500 UTC 20 January 2019
Temperature: 17.0°C (63°F)
Dewpoint: 4.0°C (39°F) [RH = 42%]
Pressure (altimeter): 30.06 inches Hg (1018.0 mb)
Winds: from the NNW (340 degrees) at 18 MPH (16 knots; 8.2 m/s)
Visibility: 6 or more miles (10+ km)
Ceiling: at least 12,000 feet AGL
Clouds: few clouds at 4500 feet AGL
Weather: no significant weather observed at this time

Forecast for: LPFR (FARO , PT)
Text: TAF LPFR 201100Z 2012/2112 31017KT 9999 SCT030
Forecast period: 1200 to 1700 UTC 20 January 2019
Forecast type: FROM: standard forecast or significant change
Winds: from the NW (310 degrees) at 20 MPH (17 knots; 8.7 m/s)
Visibility: 6 or more miles 10+ km)
Ceiling: at least 12,000 feet AGL
Clouds: scattered clouds at 3000 feet AGL
Weather: no significant weather forecast for this period
Text: PROB30
Forecast period: 1200 to 1700 UTC 20 January 2019
Forecast type: TEMPORARY: The following changes expected for less than half the time period
Winds: from the NW (310 degrees) at 23 MPH (20 knots; 10.3 m/s)
gusting to 34 MPH (30 knots; 15.4 m/s)
Visibility: missing
Ceiling: unknown
Clouds: missing
Weather: no significant weather forecast for this period
Text: TEMPO 2012/2017 31020G30KT
Forecast period: 1700 UTC 20 January 2019 to 1200 UTC 21 January 2019
Forecast type: BECOMING: Conditions expected to become as follows by 2000 UTC 20 January 2019
Winds: from the N (360 degrees) at 12 MPH (10 knots; 5.1 m/s)
Visibility: 6 or more miles 10+ km)
Ceiling: unknown
Clouds: missing
Weather: NSW  (no significant weather)

 MAPA DO AEROPORTO

 INFORMAÇÕES DA PISTA
Pista 10 Tamanho da pista 8169 ft Largura da pista 148 ft
Elevação da pista 24 ft Ranhura da pista 148 ft Proa da pista 100
Pista 28 Tamanho da pista 8169 ft Largura da pista 148 ft
Elevação da pista 18 ft Ranhura da pista 148 ft Proa da pista 280

 FREQUÊNCIAS DO AEROPORTO
Tipo APP Nome APP Frequência 119.4 MHZ
Tipo ATIS Nome ATIS Frequência 124.2 MHZ
Tipo GND Nome GND Frequência 118.575 MHZ
Tipo TWR Nome TWR Frequência 118.2 MHZ

 AUXÍLIOS DE NAVEGAÇÃO PRÓXIMOS AO AEROPORTO
Tipo NDB Nome Faro Frequência 332 KHZ
Tipo VOR-DME Nome Faro Frequência 112800 KHZ